Time;durP1;ratioP1;P1;durP2;ratioP2;P2;SDS_P1;SDS_P2;PMS_P1;PMS_P2;Temp;Humidity;BMP_temperature;BMP_pressure;BME280_temperature;BME280_humidity;BME280_pressure;Samples;Min_cycle;Max_cycle;Signal;HPM_P1;HPM_P2
2021/07/07 07:16:53;;;;;;;9.23;3.28;;;21.20;99.90;;;;;;5080207;27;20148;-75
2021/07/07 07:19:19;;;;;;;8.80;3.22;;;21.20;99.90;;;;;;5088235;28;20032;-74
2021/07/07 07:21:45;;;;;;;7.25;3.20;;;21.20;99.90;;;;;;5088122;28;20541;-74
2021/07/07 07:24:11;;;;;;;8.98;3.03;;;21.20;99.90;;;;;;5100013;28;20029;-75
2021/07/07 07:26:36;;;;;;;10.18;3.67;;;21.20;99.90;;;;;;5086291;28;20443;-72
2021/07/07 07:29:04;;;;;;;8.55;3.45;;;21.20;99.90;;;;;;5088039;28;20024;-75
2021/07/07 07:31:30;;;;;;;8.32;3.30;;;21.30;99.90;;;;;;5088272;28;20020;-72
2021/07/07 07:33:55;;;;;;;7.28;3.45;;;21.30;99.90;;;;;;5088460;28;20074;-73
2021/07/07 07:36:22;;;;;;;7.95;3.55;;;21.30;99.90;;;;;;5088611;28;20060;-71
2021/07/07 07:38:50;;;;;;;9.43;3.22;;;21.30;99.90;;;;;;5088237;28;20025;-76
2021/07/07 07:41:16;;;;;;;7.72;3.58;;;21.40;99.90;;;;;;5088490;28;20024;-73
2021/07/07 07:43:44;;;;;;;6.60;3.40;;;21.50;99.90;;;;;;5088330;28;20100;-74
2021/07/07 07:46:10;;;;;;;6.63;3.35;;;21.50;99.90;;;;;;5088394;28;20099;-68
2021/07/07 07:48:35;;;;;;;5.68;3.30;;;21.50;99.90;;;;;;5088272;28;20096;-67
2021/07/07 07:51:03;;;;;;;8.75;3.70;;;21.50;99.90;;;;;;5088712;28;20033;-67
2021/07/07 07:53:29;;;;;;;7.80;2.90;;;21.60;99.90;;;;;;5088230;28;20495;-67
2021/07/07 07:55:55;;;;;;;7.65;3.70;;;21.60;99.90;;;;;;5088038;28;20422;-68
2021/07/07 07:58:21;;;;;;;6.35;3.35;;;21.60;99.90;;;;;;5088132;28;20031;-68
2021/07/07 08:00:48;;;;;;;7.30;2.80;;;21.60;99.90;;;;;;5088120;28;20039;-68
2021/07/07 08:03:14;;;;;;;5.82;3.50;;;21.60;99.90;;;;;;5088051;28;20035;-69
2021/07/07 08:05:42;;;;;;;6.75;3.08;;;21.70;99.90;;;;;;5087897;28;20028;-67
2021/07/07 08:08:07;;;;;;;6.40;3.50;;;21.70;99.90;;;;;;5088298;28;20107;-68
2021/07/07 08:10:33;;;;;;;6.78;3.08;;;21.70;99.90;;;;;;5088173;28;20051;-69
2021/07/07 08:12:59;;;;;;;4.88;2.55;;;21.70;99.90;;;;;;5087630;28;20380;-69
2021/07/07 08:15:26;;;;;;;8.30;3.10;;;21.70;99.90;;;;;;5087792;28;20505;-68
2021/07/07 08:17:57;;;;;;;6.82;3.03;;;21.80;99.90;;;;;;5087634;28;20097;-68
2021/07/07 08:20:23;;;;;;;5.95;3.17;;;21.90;99.90;;;;;;5086740;28;20561;-70
2021/07/07 08:22:50;;;;;;;5.32;2.92;;;21.90;99.90;;;;;;5087468;28;20457;-69
2021/07/07 08:25:16;;;;;;;6.03;2.90;;;21.90;99.90;;;;;;5086363;28;20468;-68
2021/07/07 08:27:42;;;;;;;6.03;3.08;;;22.00;99.90;;;;;;5076385;28;20028;-67
2021/07/07 08:30:10;;;;;;;4.40;2.72;;;22.00;99.90;;;;;;5074357;28;20025;-69
2021/07/07 08:32:36;;;;;;;4.47;3.25;;;22.00;99.90;;;;;;5073463;28;20028;-66
2021/07/07 08:35:03;;;;;;;5.15;2.80;;;22.00;99.90;;;;;;5074243;28;20029;-74
2021/07/07 08:37:28;;;;;;;4.70;2.60;;;22.00;99.90;;;;;;5073970;28;20103;-74
2021/07/07 08:39:54;;;;;;;5.38;3.15;;;22.00;99.90;;;;;;5073511;28;20786;-71
2021/07/07 08:42:20;;;;;;;7.72;3.15;;;22.10;99.90;;;;;;5073431;28;20082;-73
2021/07/07 08:44:46;;;;;;;4.75;2.95;;;22.00;99.90;;;;;;5073724;28;20024;-71
2021/07/07 08:47:12;;;;;;;5.55;2.75;;;22.10;99.90;;;;;;5073882;28;20025;-74
2021/07/07 08:49:37;;;;;;;6.72;2.75;;;22.10;99.90;;;;;;5073614;28;20035;-74
2021/07/07 08:52:04;;;;;;;6.82;2.78;;;22.10;99.90;;;;;;5074059;28;20495;-70
2021/07/07 08:54:31;;;;;;;3.90;2.60;;;22.10;99.90;;;;;;5073841;28;20036;-73
2021/07/07 08:57:04;;;;;;;4.40;2.58;;;22.10;99.90;;;;;;5073116;28;20067;-76
2021/07/07 08:59:29;;;;;;;6.37;2.83;;;22.10;99.90;;;;;;5073046;28;20095;-74
2021/07/07 09:02:06;;;;;;;3.80;2.47;;;22.10;99.90;;;;;;5072881;28;20032;-74
2021/07/07 09:04:34;;;;;;;4.28;2.50;;;22.10;99.90;;;;;;5073365;28;20480;-72
2021/07/07 09:07:03;;;;;;;4.65;2.80;;;22.10;99.90;;;;;;5072856;28;20071;-70
2021/07/07 09:09:34;;;;;;;5.30;2.83;;;22.10;99.90;;;;;;5073080;28;20048;-69
2021/07/07 09:12:00;;;;;;;7.78;3.08;;;22.10;99.90;;;;;;5073637;28;20040;-76
2021/07/07 09:14:32;;;;;;;4.53;2.50;;;22.10;99.90;;;;;;5071970;28;20020;-75
2021/07/07 09:17:02;;;;;;;3.95;2.17;;;22.10;99.90;;;;;;5073264;28;20072;-73
2021/07/07 09:19:32;;;;;;;5.60;2.50;;;22.20;99.90;;;;;;5073114;28;20047;-73
2021/07/07 09:22:05;;;;;;;5.25;2.72;;;22.20;99.90;;;;;;5072888;28;20024;-73
2021/07/07 09:24:32;;;;;;;4.50;2.92;;;22.20;99.90;;;;;;5073381;28;20035;-70
2021/07/07 09:27:03;;;;;;;5.28;2.58;;;22.20;99.90;;;;;;5072895;28;20028;-69
2021/07/07 09:29:33;;;;;;;4.38;2.80;;;22.20;99.90;;;;;;5073030;28;20025;-68
2021/07/07 09:31:58;;;;;;;4.03;2.40;;;22.20;99.90;;;;;;5072719;28;20032;-68
2021/07/07 09:34:24;;;;;;;3.08;2.38;;;22.20;99.90;;;;;;5072671;28;20097;-70
2021/07/07 09:36:53;;;;;;;5.82;2.60;;;22.20;99.90;;;;;;5071168;28;20035;-71
2021/07/07 09:39:20;;;;;;;3.63;2.20;;;22.20;99.90;;;;;;5071753;28;20039;-71
2021/07/07 09:41:49;;;;;;;3.22;2.50;;;22.20;99.90;;;;;;5070851;28;20020;-69
2021/07/07 09:44:15;;;;;;;3.20;2.35;;;22.20;99.90;;;;;;5072481;28;20025;-71
2021/07/07 09:46:40;;;;;;;4.03;2.25;;;22.30;99.90;;;;;;5072261;28;20032;-73
2021/07/07 09:49:06;;;;;;;4.15;2.50;;;22.30;99.90;;;;;;5072675;28;20017;-67
2021/07/07 09:51:33;;;;;;;4.50;2.63;;;22.30;99.90;;;;;;5073009;28;20021;-68
2021/07/07 09:54:05;;;;;;;3.38;2.10;;;22.30;99.90;;;;;;5072360;28;20529;-69
2021/07/07 09:56:32;;;;;;;4.75;2.60;;;22.30;99.90;;;;;;5072916;28;20392;-71
2021/07/07 09:58:58;;;;;;;3.75;2.17;;;22.30;99.90;;;;;;5072131;28;20365;-71
2021/07/07 10:01:24;;;;;;;3.65;2.38;;;22.30;99.90;;;;;;5072371;28;20468;-69
2021/07/07 10:03:51;;;;;;;3.75;2.28;;;22.30;99.90;;;;;;5072067;28;20031;-69
2021/07/07 10:06:17;;;;;;;4.10;2.35;;;22.30;99.90;;;;;;5072296;28;20021;-70
2021/07/07 10:08:45;;;;;;;4.60;2.28;;;22.40;99.90;;;;;;5071750;28;20048;-71
2021/07/07 10:11:11;;;;;;;5.45;2.50;;;22.40;99.90;;;;;;5072037;28;20032;-69
2021/07/07 10:13:38;;;;;;;3.58;2.10;;;22.40;99.90;;;;;;5072005;28;20025;-69
2021/07/07 10:16:05;;;;;;;3.85;2.10;;;22.40;99.90;;;;;;5072038;28;20045;-69
2021/07/07 10:18:32;;;;;;;3.83;2.20;;;22.50;99.90;;;;;;5072277;28;20029;-68
2021/07/07 10:20:58;;;;;;;3.53;2.22;;;22.50;99.90;;;;;;5071901;28;20020;-69
2021/07/07 10:23:24;;;;;;;3.47;2.20;;;22.50;99.90;;;;;;5071861;28;20017;-68
2021/07/07 10:25:51;;;;;;;3.92;2.35;;;22.40;99.90;;;;;;5071494;28;20052;-68
2021/07/07 10:28:17;;;;;;;6.13;2.38;;;22.40;99.90;;;;;;5071843;28;20107;-68
2021/07/07 10:30:56;;;;;;;3.88;2.20;;;22.40;99.90;;;;;;5071851;28;20369;-71
2021/07/07 10:33:24;;;;;;;3.50;2.30;;;22.40;99.90;;;;;;5071599;28;20021;-69
2021/07/07 10:36:11;;;;;;;2.92;1.98;;;22.40;99.90;;;;;;5071103;28;20097;-68
2021/07/07 10:38:37;;;;;;;4.43;2.17;;;22.40;99.90;;;;;;5071010;28;20059;-68
2021/07/07 10:41:03;;;;;;;3.45;2.35;;;22.40;99.90;;;;;;5071890;28;20266;-68
2021/07/07 10:43:46;;;;;;;4.85;2.10;;;22.40;99.90;;;;;;5071847;28;20051;-68
2021/07/07 10:46:38;;;;;;;2.33;1.90;;;22.40;99.90;;;;;;5071643;28;20028;-70
2021/07/07 10:49:25;;;;;;;4.07;2.13;;;22.40;99.90;;;;;;5048147;28;20048;-70
2021/07/07 10:51:53;;;;;;;2.83;2.05;;;22.40;99.90;;;;;;5071290;28;20024;-70
2021/07/07 10:54:24;;;;;;;4.35;1.92;;;22.50;99.90;;;;;;5071558;28;20028;-71
2021/07/07 10:56:50;;;;;;;3.50;2.20;;;22.50;99.90;;;;;;5071238;28;20040;-70
2021/07/07 10:59:47;;;;;;;4.43;2.38;;;22.50;99.90;;;;;;5071691;28;20052;-70
2021/07/07 11:02:19;;;;;;;4.50;1.80;;;22.50;99.90;;;;;;5071007;28;20091;-68
2021/07/07 11:04:47;;;;;;;3.70;2.17;;;22.60;99.90;;;;;;5069760;28;20040;-69
2021/07/07 11:07:31;;;;;;;2.90;2.00;;;22.60;99.90;;;;;;5069752;28;20025;-71
2021/07/07 11:09:59;;;;;;;3.25;2.05;;;22.50;99.90;;;;;;5068621;28;20077;-71
2021/07/07 11:12:31;;;;;;;3.70;2.20;;;22.50;99.90;;;;;;5069752;28;20032;-72
2021/07/07 11:15:07;;;;;;;3.25;1.88;;;22.50;99.90;;;;;;5069604;28;20067;-72
2021/07/07 11:17:35;;;;;;;3.33;1.92;;;22.60;99.90;;;;;;5068605;28;20032;-72
2021/07/07 11:20:10;;;;;;;2.90;2.03;;;22.50;99.90;;;;;;5071491;28;20485;-71
2021/07/07 11:22:39;;;;;;;4.68;2.05;;;22.50;99.90;;;;;;5069626;28;20025;-70
2021/07/07 11:25:08;;;;;;;2.35;1.85;;;22.60;99.90;;;;;;5069496;28;20066;-71
2021/07/07 11:27:35;;;;;;;3.38;2.00;;;22.60;99.90;;;;;;5069795;28;20488;-71
2021/07/07 11:30:03;;;;;;;2.42;1.95;;;22.60;99.90;;;;;;5070116;28;20469;-70
2021/07/07 11:32:41;;;;;;;3.40;2.05;;;22.60;99.90;;;;;;5070069;28;20400;-71
2021/07/07 11:35:13;;;;;;;3.63;1.90;;;22.60;99.90;;;;;;5066145;28;20114;-70
2021/07/07 11:37:39;;;;;;;3.65;2.22;;;22.60;99.90;;;;;;5069224;28;20020;-70
2021/07/07 11:40:19;;;;;;;4.18;2.10;;;22.60;99.90;;;;;;5069960;28;20021;-70
2021/07/07 11:42:52;;;;;;;3.13;1.90;;;22.60;99.90;;;;;;5067492;28;20020;-71
2021/07/07 11:45:20;;;;;;;4.53;2.25;;;22.60;99.90;;;;;;5068235;28;20063;-70
2021/07/07 11:47:50;;;;;;;3.75;2.00;;;22.60;99.90;;;;;;5069602;28;20115;-70
2021/07/07 11:50:16;;;;;;;2.50;1.70;;;22.60;99.90;;;;;;5069827;28;20495;-71
2021/07/07 11:53:11;;;;;;;3.42;2.03;;;22.60;99.90;;;;;;5070562;28;20033;-72
2021/07/07 11:56:08;;;;;;;3.03;2.13;;;22.70;99.90;;;;;;5057195;28;20102;-72
2021/07/07 11:58:43;;;;;;;2.75;1.70;;;22.60;99.90;;;;;;5071276;28;20086;-70
2021/07/07 12:01:13;;;;;;;3.42;1.83;;;22.70;99.90;;;;;;5071097;28;20025;-72
2021/07/07 12:03:40;;;;;;;3.65;1.98;;;22.60;99.90;;;;;;5074220;28;20028;-71
2021/07/07 12:06:13;;;;;;;5.25;1.80;;;22.60;99.90;;;;;;5074560;28;20025;-71
2021/07/07 12:08:42;;;;;;;4.55;2.25;;;22.70;99.90;;;;;;5074372;28;20095;-71
2021/07/07 12:11:07;;;;;;;3.45;2.17;;;22.70;99.90;;;;;;5074632;28;20442;-71
2021/07/07 12:13:34;;;;;;;4.75;2.10;;;22.60;99.90;;;;;;5074863;28;20029;-72
2021/07/07 12:16:37;;;;;;;3.45;2.17;;;22.70;99.90;;;;;;5074385;28;20045;-71
2021/07/07 12:19:06;;;;;;;2.60;1.95;;;22.70;99.90;;;;;;5074825;28;20021;-69
2021/07/07 12:21:37;;;;;;;3.63;2.00;;;22.70;99.90;;;;;;5074645;28;20045;-68
2021/07/07 12:24:06;;;;;;;3.03;1.95;;;22.70;99.90;;;;;;5074594;28;20036;-69
2021/07/07 12:26:35;;;;;;;3.17;1.80;;;22.80;99.90;;;;;;5073982;28;20115;-70
2021/07/07 12:29:02;;;;;;;2.72;1.90;;;22.80;99.90;;;;;;5074151;28;20070;-71
2021/07/07 12:31:31;;;;;;;3.08;1.83;;;22.80;99.90;;;;;;5074198;28;20045;-70
2021/07/07 12:33:57;;;;;;;2.33;1.90;;;22.80;99.90;;;;;;5073914;28;20097;-68
2021/07/07 12:36:32;;;;;;;3.30;2.03;;;22.80;99.90;;;;;;5073664;28;20078;-68
2021/07/07 12:39:09;;;;;;;3.83;1.98;;;22.80;99.90;;;;;;5074182;28;20024;-71
2021/07/07 12:41:41;;;;;;;2.78;1.75;;;22.80;99.90;;;;;;5074341;28;20020;-71
2021/07/07 12:44:13;;;;;;;2.70;1.63;;;22.90;99.90;;;;;;5073861;28;20473;-75
2021/07/07 12:46:47;;;;;;;2.72;1.80;;;22.90;99.90;;;;;;5073754;28;20033;-71
2021/07/07 12:49:21;;;;;;;3.42;1.60;;;22.90;99.90;;;;;;5074071;28;20024;-71
2021/07/07 12:51:47;;;;;;;;;;;22.90;99.90;;;;;;5073948;28;20048;-70
2021/07/07 12:54:21;;;;;;;2.47;1.80;;;22.90;99.90;;;;;;5073453;28;20009;-70
2021/07/07 12:57:00;;;;;;;2.55;1.85;;;22.90;99.90;;;;;;5073509;28;20024;-71
2021/07/07 12:59:27;;;;;;;2.63;1.77;;;23.00;99.90;;;;;;5073819;28;20031;-75
2021/07/07 13:02:09;;;;;;;2.63;1.80;;;23.00;99.90;;;;;;5073400;28;20103;-71
2021/07/07 13:04:36;;;;;;;2.53;1.70;;;23.00;99.90;;;;;;5073509;28;20060;-70
2021/07/07 13:07:07;;;;;;;1.75;1.50;;;23.00;99.90;;;;;;5073845;28;20029;-70
2021/07/07 13:09:33;;;;;;;3.35;1.90;;;23.00;99.90;;;;;;5073948;28;20020;-68
2021/07/07 13:12:10;;;;;;;2.78;1.75;;;23.10;99.90;;;;;;5073390;28;20427;-71
2021/07/07 13:14:37;;;;;;;2.53;1.60;;;23.10;99.90;;;;;;5072864;28;20063;-69
2021/07/07 13:17:04;;;;;;;2.95;1.42;;;23.10;99.90;;;;;;5073595;28;20433;-73
2021/07/07 13:19:36;;;;;;;2.72;1.63;;;23.10;99.90;;;;;;5073877;28;20020;-75
2021/07/07 13:22:03;;;;;;;2.33;1.88;;;23.20;99.90;;;;;;5073413;28;20028;-72
2021/07/07 13:24:37;;;;;;;4.60;1.80;;;23.20;99.90;;;;;;5073477;28;20111;-75
2021/07/07 13:27:16;;;;;;;2.53;1.67;;;23.20;99.90;;;;;;5073488;28;20031;-74
2021/07/07 13:29:48;;;;;;;3.13;1.83;;;23.20;99.90;;;;;;5072953;28;20064;-76
2021/07/07 13:32:22;;;;;;;2.50;1.70;;;23.30;99.90;;;;;;5072873;28;20417;-75
2021/07/07 13:34:56;;;;;;;2.83;1.70;;;23.30;99.90;;;;;;5071214;28;20028;-74
2021/07/07 13:37:29;;;;;;;2.22;1.70;;;23.30;99.90;;;;;;5073168;28;20063;-75
2021/07/07 13:40:01;;;;;;;2.70;1.60;;;23.30;99.90;;;;;;5072704;28;20029;-75
2021/07/07 13:42:29;;;;;;;3.05;1.80;;;23.30;99.90;;;;;;5072864;28;20298;-70
2021/07/07 13:44:56;;;;;;;2.83;1.58;;;23.30;99.90;;;;;;5072525;28;20056;-70
2021/07/07 13:47:22;;;;;;;3.97;1.58;;;23.30;99.90;;;;;;5072731;28;20047;-70
2021/07/07 13:49:49;;;;;;;2.20;1.77;;;23.40;99.90;;;;;;5071280;28;20389;-71
2021/07/07 13:52:16;;;;;;;1.60;1.50;;;23.40;99.90;;;;;;5072283;28;20029;-70
2021/07/07 13:54:42;;;;;;;2.97;1.90;;;23.40;99.90;;;;;;5072229;28;20020;-72
2021/07/07 13:57:09;;;;;;;2.25;1.52;;;23.40;99.90;;;;;;5072637;28;20358;-76
2021/07/07 13:59:36;;;;;;;2.28;1.58;;;23.50;99.90;;;;;;5072690;28;20036;-70
2021/07/07 14:02:02;;;;;;;2.38;1.50;;;23.50;99.90;;;;;;5072788;28;20024;-76
2021/07/07 14:04:28;;;;;;;1.77;1.52;;;23.50;99.90;;;;;;5072283;28;20025;-75
2021/07/07 14:06:54;;;;;;;2.30;1.63;;;23.50;99.90;;;;;;5072109;28;20381;-76
2021/07/07 14:09:21;;;;;;;2.20;1.60;;;23.60;99.90;;;;;;5072408;28;20024;-73
2021/07/07 14:11:46;;;;;;;2.67;1.73;;;23.50;99.90;;;;;;5072141;28;20107;-74
2021/07/07 14:14:12;;;;;;;2.05;1.42;;;23.60;99.90;;;;;;5072305;28;20480;-74
2021/07/07 14:16:38;;;;;;;2.47;1.42;;;23.60;99.90;;;;;;5071676;28;20047;-75
2021/07/07 14:19:05;;;;;;;2.35;1.75;;;23.60;99.90;;;;;;5072428;28;20477;-76
2021/07/07 14:21:31;;;;;;;2.78;1.60;;;23.70;99.90;;;;;;5072429;28;20093;-71
2021/07/07 14:23:56;;;;;;;2.17;1.70;;;23.70;99.90;;;;;;5071468;28;20058;-73
2021/07/07 14:26:22;;;;;;;2.67;1.58;;;23.70;99.90;;;;;;5071666;28;20087;-76
2021/07/07 14:28:49;;;;;;;2.38;1.73;;;23.70;99.90;;;;;;5071805;28;20096;-74
2021/07/07 14:31:15;;;;;;;1.80;1.40;;;23.80;99.90;;;;;;5071974;28;20032;-77
2021/07/07 14:33:40;;;;;;;1.95;1.60;;;23.80;99.90;;;;;;5071708;28;20027;-72
2021/07/07 14:36:07;;;;;;;2.53;1.83;;;23.80;99.90;;;;;;5071705;28;20037;-72
2021/07/07 14:38:32;;;;;;;2.92;1.50;;;23.70;99.90;;;;;;5072040;28;20579;-74
2021/07/07 14:40:58;;;;;;;2.35;1.45;;;23.80;99.90;;;;;;5071598;28;20040;-73
2021/07/07 14:43:24;;;;;;;3.17;1.70;;;23.80;99.90;;;;;;5071630;28;20035;-73
2021/07/07 14:45:50;;;;;;;1.92;1.60;;;23.80;99.90;;;;;;5071458;28;20025;-73
2021/07/07 14:48:20;;;;;;;3.00;1.65;;;23.80;99.90;;;;;;5070323;28;20028;-74
2021/07/07 14:50:46;;;;;;;2.17;1.70;;;23.90;99.90;;;;;;5070143;28;20047;-73
2021/07/07 14:53:12;;;;;;;2.75;1.50;;;23.90;99.90;;;;;;5071023;28;20025;-73
2021/07/07 14:55:37;;;;;;;2.17;1.42;;;23.90;99.90;;;;;;5070997;28;20062;-72
2021/07/07 14:58:04;;;;;;;2.72;1.20;;;23.90;99.90;;;;;;5071755;28;20029;-72
2021/07/07 15:00:31;;;;;;;1.73;1.35;;;23.90;99.90;;;;;;5071641;28;20036;-73
2021/07/07 15:02:57;;;;;;;2.40;1.50;;;23.90;99.90;;;;;;5071366;28;20103;-73
2021/07/07 15:05:23;;;;;;;1.85;1.60;;;23.90;99.90;;;;;;5071440;28;20511;-72
2021/07/07 15:07:48;;;;;;;2.67;1.70;;;23.90;99.90;;;;;;5071093;28;20021;-73
2021/07/07 15:10:15;;;;;;;3.63;1.70;;;24.00;99.90;;;;;;5071327;28;20020;-72
2021/07/07 15:12:40;;;;;;;2.95;1.30;;;24.00;99.90;;;;;;5071152;28;20108;-73
2021/07/07 15:15:07;;;;;;;1.55;1.45;;;24.00;99.90;;;;;;5071231;28;20143;-73
2021/07/07 15:17:33;;;;;;;1.27;1.17;;;24.00;99.90;;;;;;5071700;28;20025;-73
2021/07/07 15:19:58;;;;;;;2.05;1.50;;;24.00;99.90;;;;;;5069833;28;20027;-73
2021/07/07 15:22:24;;;;;;;1.85;1.40;;;24.00;99.90;;;;;;5070874;28;20481;-72
2021/07/07 15:24:51;;;;;;;2.00;1.40;;;24.00;99.90;;;;;;5071278;28;20056;-73
2021/07/07 15:27:18;;;;;;;2.05;1.50;;;24.00;99.90;;;;;;5071346;28;20028;-73
2021/07/07 15:29:44;;;;;;;2.30;1.40;;;24.00;99.90;;;;;;5071013;28;20427;-72
2021/07/07 15:32:10;;;;;;;2.17;1.48;;;24.10;99.90;;;;;;5071087;28;20385;-71
2021/07/07 15:34:36;;;;;;;3.38;1.70;;;24.10;99.90;;;;;;5070780;28;20031;-73
2021/07/07 15:37:02;;;;;;;1.90;1.38;;;24.10;99.90;;;;;;5071238;28;20075;-73
2021/07/07 15:39:28;;;;;;;2.42;1.75;;;24.10;99.90;;;;;;5075191;28;20539;-73
2021/07/07 15:41:54;;;;;;;1.95;1.50;;;24.10;99.90;;;;;;5074979;28;20036;-72
2021/07/07 15:44:19;;;;;;;2.55;1.63;;;24.10;99.90;;;;;;5075177;28;20498;-72
2021/07/07 15:46:45;;;;;;;1.85;1.48;;;24.10;99.90;;;;;;5074999;28;20048;-72
2021/07/07 15:49:12;;;;;;;1.65;1.50;;;24.10;99.90;;;;;;5074925;28;20055;-74
2021/07/07 15:51:38;;;;;;;2.10;1.45;;;24.10;99.90;;;;;;5074260;28;20035;-72
2021/07/07 15:54:04;;;;;;;3.10;1.77;;;24.20;99.90;;;;;;5075182;28;20032;-74
2021/07/07 15:56:29;;;;;;;2.45;1.75;;;24.10;99.90;;;;;;5074184;28;20046;-73
2021/07/07 15:58:55;;;;;;;1.95;1.48;;;24.20;99.90;;;;;;5074278;28;20107;-73
2021/07/07 16:01:20;;;;;;;1.75;1.30;;;24.10;99.90;;;;;;5074030;28;20369;-74
2021/07/07 16:03:46;;;;;;;1.95;1.48;;;24.10;99.90;;;;;;5073757;28;20037;-73
2021/07/07 16:06:12;;;;;;;1.98;1.20;;;24.10;99.90;;;;;;5073110;28;20201;-73
2021/07/07 16:08:38;;;;;;;1.95;1.52;;;24.10;99.90;;;;;;5073645;28;20513;-75
2021/07/07 16:11:03;;;;;;;2.15;1.70;;;24.20;99.90;;;;;;5074502;28;20029;-73
2021/07/07 16:13:29;;;;;;;1.98;1.55;;;24.10;99.90;;;;;;5074584;28;20025;-75
2021/07/07 16:15:55;;;;;;;2.22;1.35;;;24.10;99.90;;;;;;5074106;28;20040;-75
2021/07/07 16:18:20;;;;;;;1.80;1.27;;;24.10;99.90;;;;;;5074440;28;20017;-73
2021/07/07 16:20:46;;;;;;;2.60;1.65;;;24.10;99.90;;;;;;5074254;28;20557;-73
2021/07/07 16:23:12;;;;;;;2.13;1.33;;;24.10;99.90;;;;;;5074014;28;20033;-74
2021/07/07 16:25:37;;;;;;;2.47;1.50;;;24.10;99.90;;;;;;5073991;28;20016;-73
2021/07/07 16:28:03;;;;;;;2.38;1.30;;;24.10;99.90;;;;;;5074594;28;20036;-74
2021/07/07 16:30:29;;;;;;;2.08;1.42;;;24.10;99.90;;;;;;5074246;28;20025;-73
2021/07/07 16:32:55;;;;;;;2.08;1.55;;;24.10;99.90;;;;;;5073862;28;20484;-73
2021/07/07 16:35:21;;;;;;;1.92;1.30;;;24.10;99.90;;;;;;5073708;28;20033;-72
2021/07/07 16:37:47;;;;;;;3.28;1.48;;;24.10;99.90;;;;;;5074003;28;20029;-73
2021/07/07 16:40:13;;;;;;;4.15;1.52;;;24.10;99.90;;;;;;5074330;28;20036;-75
2021/07/07 16:42:39;;;;;;;4.50;2.05;;;24.10;99.90;;;;;;5073923;28;20038;-73
2021/07/07 16:45:07;;;;;;;2.53;1.52;;;24.10;99.90;;;;;;5073957;28;20024;-76
2021/07/07 16:47:33;;;;;;;3.35;1.70;;;24.20;99.90;;;;;;5073661;28;20029;-76
2021/07/07 16:49:58;;;;;;;2.22;1.60;;;24.20;99.90;;;;;;5073599;28;20455;-76
2021/07/07 16:52:24;;;;;;;4.05;1.80;;;24.20;99.90;;;;;;5073641;28;20040;-77
2021/07/07 16:54:50;;;;;;;3.83;1.40;;;24.10;99.90;;;;;;5073571;28;20024;-77
2021/07/07 16:57:16;;;;;;;2.40;1.40;;;24.20;99.90;;;;;;5073857;28;20388;-76
2021/07/07 16:59:42;;;;;;;2.60;1.48;;;24.20;99.90;;;;;;5073460;28;20028;-75
2021/07/07 17:02:08;;;;;;;2.10;1.50;;;24.20;99.90;;;;;;5073646;28;20029;-76
2021/07/07 17:04:33;;;;;;;5.13;1.42;;;24.20;99.90;;;;;;5073914;28;20020;-78
2021/07/07 17:06:59;;;;;;;3.55;1.30;;;24.20;99.90;;;;;;5073369;28;20020;-76
2021/07/07 17:09:25;;;;;;;2.10;1.50;;;24.20;99.90;;;;;;5073572;28;20430;-77
2021/07/07 17:11:52;;;;;;;3.22;1.70;;;24.20;99.90;;;;;;5073219;28;20016;-78
2021/07/07 17:14:18;;;;;;;2.03;1.52;;;24.20;99.90;;;;;;5073494;28;20579;-76
2021/07/07 17:16:44;;;;;;;3.55;1.33;;;24.20;99.90;;;;;;5072933;28;20036;-70
2021/07/07 17:19:12;;;;;;;2.40;1.40;;;24.20;99.90;;;;;;5073465;28;20025;-76
2021/07/07 17:21:38;;;;;;;3.05;1.50;;;24.20;99.90;;;;;;5072916;28;20071;-74
2021/07/07 17:24:05;;;;;;;3.45;1.50;;;24.20;99.90;;;;;;5073089;28;20074;-73
2021/07/07 17:26:32;;;;;;;2.72;1.50;;;24.20;99.90;;;;;;5073127;28;20048;-73
2021/07/07 17:28:58;;;;;;;3.00;1.50;;;24.20;99.90;;;;;;5072996;28;20028;-76
2021/07/07 17:31:24;;;;;;;2.30;1.67;;;24.20;99.90;;;;;;5072965;28;20398;-71
2021/07/07 17:33:50;;;;;;;2.35;1.50;;;24.20;99.90;;;;;;5072846;28;20024;-74
2021/07/07 17:36:16;;;;;;;2.85;1.30;;;24.20;99.90;;;;;;5072870;28;20449;-74
2021/07/07 17:38:42;;;;;;;2.85;1.63;;;24.20;99.90;;;;;;5071824;28;20112;-76
2021/07/07 17:41:07;;;;;;;1.70;1.35;;;24.20;99.90;;;;;;5073231;28;20100;-74
2021/07/07 17:43:34;;;;;;;1.85;1.50;;;24.20;99.90;;;;;;5073099;28;20389;-70
2021/07/07 17:46:01;;;;;;;2.53;1.50;;;24.20;99.90;;;;;;5073051;28;20032;-71
2021/07/07 17:48:27;;;;;;;1.63;1.40;;;24.20;99.90;;;;;;5072928;28;20439;-70
2021/07/07 17:50:53;;;;;;;2.78;1.30;;;24.30;99.90;;;;;;5072495;28;20028;-73
2021/07/07 17:53:19;;;;;;;3.45;1.52;;;24.30;99.90;;;;;;5072686;28;20012;-72
2021/07/07 17:55:45;;;;;;;2.35;1.52;;;24.30;99.90;;;;;;5071972;28;20086;-73
2021/07/07 17:58:10;;;;;;;4.10;1.40;;;24.30;99.90;;;;;;5072264;28;20032;-70
2021/07/07 18:00:36;;;;;;;2.38;1.30;;;24.30;99.90;;;;;;5071362;28;20021;-75
2021/07/07 18:03:03;;;;;;;3.45;1.50;;;24.30;99.90;;;;;;5072724;28;20379;-71
2021/07/07 18:05:29;;;;;;;1.92;1.30;;;24.30;99.90;;;;;;5072441;28;20108;-69
2021/07/07 18:07:55;;;;;;;3.92;1.38;;;24.20;99.90;;;;;;5071468;28;20113;-70
2021/07/07 18:10:20;;;;;;;3.05;1.30;;;24.20;99.90;;;;;;5072229;28;20419;-70
2021/07/07 18:12:46;;;;;;;4.57;1.60;;;24.30;99.90;;;;;;5072099;28;20027;-72
2021/07/07 18:15:12;;;;;;;3.22;1.55;;;24.20;99.90;;;;;;5071975;28;20025;-68
2021/07/07 18:17:38;;;;;;;3.42;1.90;;;24.20;99.90;;;;;;5071867;28;20499;-66
2021/07/07 18:20:06;;;;;;;2.78;1.58;;;24.20;99.90;;;;;;5072450;28;20028;-72
2021/07/07 18:22:32;;;;;;;4.38;1.65;;;24.20;99.90;;;;;;5072076;28;20067;-72
2021/07/07 18:24:58;;;;;;;5.50;1.88;;;24.30;99.90;;;;;;5071893;28;20098;-72
2021/07/07 18:27:23;;;;;;;6.75;1.80;;;24.30;99.90;;;;;;5071970;28;20028;-71
2021/07/07 18:29:49;;;;;;;4.55;1.60;;;24.30;99.90;;;;;;5071768;28;20024;-73
2021/07/07 18:32:15;;;;;;;4.07;1.65;;;24.20;99.90;;;;;;5071862;28;20035;-74
2021/07/07 18:34:40;;;;;;;5.97;1.88;;;24.30;99.90;;;;;;5071516;28;20025;-71
2021/07/07 18:37:06;;;;;;;4.07;1.58;;;24.20;99.90;;;;;;5069995;28;20033;-71
2021/07/07 18:39:32;;;;;;;4.32;1.70;;;24.30;99.90;;;;;;5070965;28;20020;-72
2021/07/07 18:41:57;;;;;;;3.88;1.58;;;24.20;99.90;;;;;;5071049;28;20038;-73
2021/07/07 18:44:23;;;;;;;4.55;1.77;;;24.20;99.90;;;;;;5071101;28;20441;-74
2021/07/07 18:46:48;;;;;;;4.85;2.17;;;24.20;99.90;;;;;;5070947;28;20468;-72
2021/07/07 18:49:14;;;;;;;4.78;1.95;;;24.20;99.90;;;;;;5071607;28;20028;-72
2021/07/07 18:51:40;;;;;;;2.67;1.83;;;24.20;99.90;;;;;;5070607;28;20074;-73
2021/07/07 18:54:05;;;;;;;4.70;2.05;;;24.20;99.90;;;;;;5071107;28;20070;-74
2021/07/07 18:56:31;;;;;;;2.85;1.75;;;24.20;99.90;;;;;;5069827;28;20810;-71
2021/07/07 18:58:57;;;;;;;4.40;1.98;;;24.10;99.90;;;;;;5070902;28;20036;-74
2021/07/07 19:01:23;;;;;;;2.40;1.75;;;24.10;99.90;;;;;;5070244;28;20412;-72
2021/07/07 19:03:50;;;;;;;2.95;1.63;;;24.10;99.90;;;;;;5070035;28;20017;-73
2021/07/07 19:06:15;;;;;;;3.03;1.77;;;24.10;99.90;;;;;;5071648;28;20024;-72
2021/07/07 19:08:41;;;;;;;3.40;1.83;;;24.10;99.90;;;;;;5070414;28;20035;-71
2021/07/07 19:11:07;;;;;;;2.75;1.55;;;24.10;99.90;;;;;;5070496;28;20025;-73
2021/07/07 19:13:33;;;;;;;3.10;1.83;;;24.10;99.90;;;;;;5071611;28;20496;-71
2021/07/07 19:15:59;;;;;;;5.68;1.80;;;24.10;99.90;;;;;;5070045;28;20547;-71
2021/07/07 19:18:24;;;;;;;4.15;2.20;;;24.10;99.90;;;;;;5071068;28;20401;-72
2021/07/07 19:20:53;;;;;;;8.68;2.90;;;24.10;99.90;;;;;;5070824;28;20025;-72
2021/07/07 19:23:19;;;;;;;5.03;2.30;;;24.10;99.90;;;;;;5070922;28;20029;-70
2021/07/07 19:25:46;;;;;;;5.97;2.67;;;24.00;99.90;;;;;;5052202;28;20051;-71
2021/07/07 19:28:13;;;;;;;6.10;3.50;;;24.00;99.90;;;;;;5070842;28;20020;-73
2021/07/07 19:30:40;;;;;;;8.43;2.97;;;24.10;99.90;;;;;;5071013;28;20036;-72
2021/07/07 19:33:06;;;;;;;5.13;3.15;;;24.00;99.90;;;;;;5070310;28;20020;-72
2021/07/07 19:35:32;;;;;;;9.35;3.00;;;24.00;99.90;;;;;;5071484;28;20025;-72
2021/07/07 19:38:00;;;;;;;7.25;3.28;;;24.00;99.90;;;;;;5070480;28;20379;-72
2021/07/07 19:40:27;;;;;;;5.40;2.47;;;24.00;99.90;;;;;;5070111;28;20025;-72
2021/07/07 19:42:53;;;;;;;7.28;2.88;;;24.00;99.90;;;;;;5070235;28;20028;-71
2021/07/07 19:45:19;;;;;;;5.65;2.90;;;24.00;99.90;;;;;;5068982;28;20119;-71
2021/07/07 19:47:45;;;;;;;6.45;3.00;;;24.00;99.90;;;;;;5068750;28;20116;-72
2021/07/07 19:50:13;;;;;;;6.88;2.90;;;23.90;99.90;;;;;;5070407;28;20438;-74
2021/07/07 19:52:40;;;;;;;5.18;3.05;;;23.90;99.90;;;;;;5070640;28;20074;-73
2021/07/07 19:55:08;;;;;;;5.07;2.85;;;23.90;99.90;;;;;;5070471;28;20086;-73
2021/07/07 19:57:40;;;;;;;6.25;2.55;;;23.90;99.90;;;;;;5070698;28;20488;-73
2021/07/07 20:00:13;;;;;;;8.68;3.08;;;23.90;99.90;;;;;;5068810;28;20028;-75
2021/07/07 20:02:39;;;;;;;9.20;2.58;;;23.90;99.90;;;;;;5070430;28;20032;-74
2021/07/07 20:05:05;;;;;;;8.25;2.90;;;23.90;99.90;;;;;;5070692;28;20097;-73
2021/07/07 20:07:31;;;;;;;5.82;2.85;;;23.90;99.90;;;;;;5070890;28;20029;-75